sensor_id;sensor_type;location;lat;lon;timestamp;pressure;altitude;pressure_sealevel;temperature;humidity
79752;BME280;69234;47.446;21.636;2023-04-22T00:00:26;100305.13;;;10.58;49.37
79752;BME280;69234;47.446;21.636;2023-04-22T00:00:58;100304.28;;;10.58;49.84
79752;BME280;69234;47.446;21.636;2023-04-22T00:01:29;100300.75;;;10.57;49.87
79752;BME280;69234;47.446;21.636;2023-04-22T00:02:00;100300.84;;;10.56;49.87
79752;BME280;69234;47.446;21.636;2023-04-22T00:02:31;100304.53;;;10.55;49.58
79752;BME280;69234;47.446;21.636;2023-04-22T00:03:02;100306.38;;;10.54;49.96
79752;BME280;69234;47.446;21.636;2023-04-22T00:03:33;100307.22;;;10.55;49.37
79752;BME280;69234;47.446;21.636;2023-04-22T00:04:04;100303.69;;;10.54;49.72
79752;BME280;69234;47.446;21.636;2023-04-22T00:04:35;100301.00;;;10.54;49.49
79752;BME280;69234;47.446;21.636;2023-04-22T00:05:07;100298.72;;;10.50;49.83
79752;BME280;69234;47.446;21.636;2023-04-22T00:05:38;100297.00;;;10.48;49.79
79752;BME280;69234;47.446;21.636;2023-04-22T00:06:10;100305.91;;;10.49;49.95
79752;BME280;69234;47.446;21.636;2023-04-22T00:06:41;100304.19;;;10.48;49.82
79752;BME280;69234;47.446;21.636;2023-04-22T00:07:13;100305.31;;;10.45;49.99
79752;BME280;69234;47.446;21.636;2023-04-22T00:07:44;100301.78;;;10.45;49.91
79752;BME280;69234;47.446;21.636;2023-04-22T00:08:15;100303.50;;;10.46;49.57
79752;BME280;69234;47.446;21.636;2023-04-22T00:08:46;100300.94;;;10.44;49.95
79752;BME280;69234;47.446;21.636;2023-04-22T00:09:17;100300.94;;;10.44;50.13
79752;BME280;69234;47.446;21.636;2023-04-22T00:09:48;100304.47;;;10.45;49.62
79752;BME280;69234;47.446;21.636;2023-04-22T00:10:19;100304.47;;;10.45;49.82
79752;BME280;69234;47.446;21.636;2023-04-22T00:10:50;100310.81;;;10.44;49.92
79752;BME280;69234;47.446;21.636;2023-04-22T00:11:20;100305.72;;;10.41;49.95
79752;BME280;69234;47.446;21.636;2023-04-22T00:11:51;100302.28;;;10.39;50.49
79752;BME280;69234;47.446;21.636;2023-04-22T00:12:22;100305.72;;;10.41;49.86
79752;BME280;69234;47.446;21.636;2023-04-22T00:12:53;100303.19;;;10.39;50.19
79752;BME280;69234;47.446;21.636;2023-04-22T00:13:24;100297.22;;;10.36;49.83
79752;BME280;69234;47.446;21.636;2023-04-22T00:13:55;100306.22;;;10.35;49.75
79752;BME280;69234;47.446;21.636;2023-04-22T00:14:25;100306.22;;;10.35;50.13
79752;BME280;69234;47.446;21.636;2023-04-22T00:14:56;100304.53;;;10.34;50.49
79752;BME280;69234;47.446;21.636;2023-04-22T00:15:27;100308.06;;;10.34;50.37
79752;BME280;69234;47.446;21.636;2023-04-22T00:15:58;100313.59;;;10.33;50.26
79752;BME280;69234;47.446;21.636;2023-04-22T00:16:28;100313.59;;;10.33;49.79
79752;BME280;69234;47.446;21.636;2023-04-22T00:17:01;100305.53;;;10.33;50.35
79752;BME280;69234;47.446;21.636;2023-04-22T00:17:32;100305.66;;;10.31;50.54
79752;BME280;69234;47.446;21.636;2023-04-22T00:18:03;100305.78;;;10.30;50.12
79752;BME280;69234;47.446;21.636;2023-04-22T00:18:34;100304.81;;;10.31;50.01
79752;BME280;69234;47.446;21.636;2023-04-22T00:19:05;100303.81;;;10.32;50.34
79752;BME280;69234;47.446;21.636;2023-04-22T00:19:36;100305.66;;;10.31;49.75
79752;BME280;69234;47.446;21.636;2023-04-22T00:20:07;100306.75;;;10.29;49.97
79752;BME280;69234;47.446;21.636;2023-04-22T00:20:41;100309.44;;;10.29;50.35
79752;BME280;69234;47.446;21.636;2023-04-22T00:21:13;100305.19;;;10.26;50.30
79752;BME280;69234;47.446;21.636;2023-04-22T00:21:44;100303.38;;;10.27;50.15
79752;BME280;69234;47.446;21.636;2023-04-22T00:22:15;100307.88;;;10.26;50.10
79752;BME280;69234;47.446;21.636;2023-04-22T00:22:46;100317.78;;;10.26;50.24
79752;BME280;69234;47.446;21.636;2023-04-22T00:23:17;100305.28;;;10.24;50.41
79752;BME280;69234;47.446;21.636;2023-04-22T00:23:47;100310.66;;;10.24;50.18
79752;BME280;69234;47.446;21.636;2023-04-22T00:24:18;100298.22;;;10.23;50.23
79752;BME280;69234;47.446;21.636;2023-04-22T00:24:49;100313.34;;;10.24;50.57
79752;BME280;69234;47.446;21.636;2023-04-22T00:25:20;100311.63;;;10.23;50.05
79752;BME280;69234;47.446;21.636;2023-04-22T00:25:50;100308.97;;;10.23;50.34
79752;BME280;69234;47.446;21.636;2023-04-22T00:26:21;100310.06;;;10.21;50.85
79752;BME280;69234;47.446;21.636;2023-04-22T00:26:52;100314.59;;;10.20;50.23
79752;BME280;69234;47.446;21.636;2023-04-22T00:27:23;100309.22;;;10.20;50.18
79752;BME280;69234;47.446;21.636;2023-04-22T00:27:53;100305.09;;;10.16;50.22
79752;BME280;69234;47.446;21.636;2023-04-22T00:28:24;100311.91;;;10.20;50.80
79752;BME280;69234;47.446;21.636;2023-04-22T00:28:56;100306.78;;;10.17;50.40
79752;BME280;69234;47.446;21.636;2023-04-22T00:29:26;100307.53;;;10.19;50.32
79752;BME280;69234;47.446;21.636;2023-04-22T00:29:57;100302.41;;;10.16;50.27
79752;BME280;69234;47.446;21.636;2023-04-22T00:30:28;100310.47;;;10.16;50.42
79752;BME280;69234;47.446;21.636;2023-04-22T00:30:58;100301.56;;;10.16;49.98
79752;BME280;69234;47.446;21.636;2023-04-22T00:31:30;100313.16;;;10.16;50.42
79752;BME280;69234;47.446;21.636;2023-04-22T00:32:00;100303.41;;;10.15;50.22
79752;BME280;69234;47.446;21.636;2023-04-22T00:32:31;100304.50;;;10.13;50.31
79752;BME280;69234;47.446;21.636;2023-04-22T00:33:02;100299.00;;;10.14;50.07
79752;BME280;69234;47.446;21.636;2023-04-22T00:33:33;100302.66;;;10.13;50.42
79752;BME280;69234;47.446;21.636;2023-04-22T00:34:04;100302.66;;;10.13;50.38
79752;BME280;69234;47.446;21.636;2023-04-22T00:34:34;100307.44;;;10.10;50.33
79752;BME280;69234;47.446;21.636;2023-04-22T00:35:06;100297.56;;;10.10;50.37
79752;BME280;69234;47.446;21.636;2023-04-22T00:35:37;100305.75;;;10.09;50.61
79752;BME280;69234;47.446;21.636;2023-04-22T00:36:08;100301.34;;;10.08;50.59
79752;BME280;69234;47.446;21.636;2023-04-22T00:36:38;100298.94;;;10.05;50.70
79752;BME280;69234;47.446;21.636;2023-04-22T00:37:09;100301.75;;;10.03;50.69
79752;BME280;69234;47.446;21.636;2023-04-22T00:37:40;100300.03;;;10.02;50.59
79752;BME280;69234;47.446;21.636;2023-04-22T00:38:11;100305.41;;;10.02;50.76
79752;BME280;69234;47.446;21.636;2023-04-22T00:38:48;100296.50;;;10.02;50.51
79752;BME280;69234;47.446;21.636;2023-04-22T00:39:20;100298.59;;;9.98;50.88
79752;BME280;69234;47.446;21.636;2023-04-22T00:39:51;100303.09;;;9.97;50.51
79752;BME280;69234;47.446;21.636;2023-04-22T00:40:21;100303.25;;;9.96;50.30
79752;BME280;69234;47.446;21.636;2023-04-22T00:40:52;100296.03;;;9.96;50.06
79752;BME280;69234;47.446;21.636;2023-04-22T00:41:23;100303.25;;;9.96;50.80
79752;BME280;69234;47.446;21.636;2023-04-22T00:41:54;100294.19;;;9.97;49.81
79752;BME280;69234;47.446;21.636;2023-04-22T00:42:25;100297.63;;;9.99;49.62
79752;BME280;69234;47.446;21.636;2023-04-22T00:42:57;100299.44;;;9.98;50.10
79752;BME280;69234;47.446;21.636;2023-04-22T00:43:29;100297.72;;;9.97;50.27
79752;BME280;69234;47.446;21.636;2023-04-22T00:44:00;100301.03;;;10.01;49.83
79752;BME280;69234;47.446;21.636;2023-04-22T00:44:31;100304.69;;;10.00;49.61
79752;BME280;69234;47.446;21.636;2023-04-22T00:45:02;100303.72;;;10.01;49.67
79752;BME280;69234;47.446;21.636;2023-04-22T00:45:36;100305.66;;;9.99;49.69
79752;BME280;69234;47.446;21.636;2023-04-22T00:46:08;100298.59;;;9.98;49.57
79752;BME280;69234;47.446;21.636;2023-04-22T00:46:39;100296.88;;;9.97;50.04
79752;BME280;69234;47.446;21.636;2023-04-22T00:47:09;100301.53;;;9.95;49.66
79752;BME280;69234;47.446;21.636;2023-04-22T00:47:41;100297.13;;;9.94;49.60
79752;BME280;69234;47.446;21.636;2023-04-22T00:48:12;100298.25;;;9.91;49.95
79752;BME280;69234;47.446;21.636;2023-04-22T00:48:44;100297.28;;;9.92;49.70
79752;BME280;69234;47.446;21.636;2023-04-22T00:49:16;100297.41;;;9.91;49.51
79752;BME280;69234;47.446;21.636;2023-04-22T00:49:48;100298.25;;;9.91;49.36
79752;BME280;69234;47.446;21.636;2023-04-22T00:50:19;100295.59;;;9.91;49.83
79752;BME280;69234;47.446;21.636;2023-04-22T00:50:50;100299.22;;;9.90;49.99
79752;BME280;69234;47.446;21.636;2023-04-22T00:51:21;100298.53;;;9.88;49.60
79752;BME280;69234;47.446;21.636;2023-04-22T00:51:52;100299.38;;;9.89;49.19
79752;BME280;69234;47.446;21.636;2023-04-22T00:52:23;100298.38;;;9.90;49.32
79752;BME280;69234;47.446;21.636;2023-04-22T00:52:54;100295.84;;;9.88;49.27
79752;BME280;69234;47.446;21.636;2023-04-22T00:53:24;100293.75;;;9.92;48.97
79752;BME280;69234;47.446;21.636;2023-04-22T00:53:55;100292.06;;;9.91;49.29
79752;BME280;69234;47.446;21.636;2023-04-22T00:54:26;100291.06;;;9.92;49.13
79752;BME280;69234;47.446;21.636;2023-04-22T00:54:58;100299.13;;;9.92;49.35
79752;BME280;69234;47.446;21.636;2023-04-22T00:55:29;100302.38;;;9.95;49.13
79752;BME280;69234;47.446;21.636;2023-04-22T00:56:00;100291.91;;;9.92;48.82
79752;BME280;69234;47.446;21.636;2023-04-22T00:56:32;100298.97;;;9.93;48.75
79752;BME280;69234;47.446;21.636;2023-04-22T00:57:05;100292.50;;;9.96;48.30
79752;BME280;69234;47.446;21.636;2023-04-22T00:57:37;100292.50;;;9.96;48.88
79752;BME280;69234;47.446;21.636;2023-04-22T00:58:09;100296.88;;;9.97;48.53
79752;BME280;69234;47.446;21.636;2023-04-22T00:58:40;100294.94;;;9.99;48.64
79752;BME280;69234;47.446;21.636;2023-04-22T00:59:11;100295.03;;;9.97;48.68
79752;BME280;69234;47.446;21.636;2023-04-22T00:59:43;100295.38;;;10.04;48.24
79752;BME280;69234;47.446;21.636;2023-04-22T01:00:14;100300.50;;;10.07;48.07
79752;BME280;69234;47.446;21.636;2023-04-22T01:00:45;100294.41;;;10.05;48.45
79752;BME280;69234;47.446;21.636;2023-04-22T01:01:16;100290.88;;;10.05;47.73
79752;BME280;69234;47.446;21.636;2023-04-22T01:01:49;100295.84;;;10.09;47.94
79752;BME280;69234;47.446;21.636;2023-04-22T01:02:19;100291.34;;;10.10;48.26
79752;BME280;69234;47.446;21.636;2023-04-22T01:02:52;100305.25;;;10.15;48.15
79752;BME280;69234;47.446;21.636;2023-04-22T01:03:25;100295.94;;;10.19;47.43
79752;BME280;69234;47.446;21.636;2023-04-22T01:03:57;100301.41;;;10.17;47.56
79752;BME280;69234;47.446;21.636;2023-04-22T01:04:30;100299.56;;;10.18;47.90
79752;BME280;69234;47.446;21.636;2023-04-22T01:05:01;100292.53;;;10.17;47.66
79752;BME280;69234;47.446;21.636;2023-04-22T01:05:33;100294.22;;;10.18;47.56
79752;BME280;69234;47.446;21.636;2023-04-22T01:06:05;100297.63;;;10.20;47.33
79752;BME280;69234;47.446;21.636;2023-04-22T01:06:38;100295.78;;;10.20;48.02
79752;BME280;69234;47.446;21.636;2023-04-22T01:07:10;100295.94;;;10.19;48.00
79752;BME280;69234;47.446;21.636;2023-04-22T01:07:41;100295.09;;;10.18;47.78
79752;BME280;69234;47.446;21.636;2023-04-22T01:08:12;100297.88;;;10.17;48.33
79752;BME280;69234;47.446;21.636;2023-04-22T01:08:42;100299.97;;;10.13;48.09
79752;BME280;69234;47.446;21.636;2023-04-22T01:09:13;100295.59;;;10.12;47.74
79752;BME280;69234;47.446;21.636;2023-04-22T01:09:45;100292.91;;;10.12;47.73
79752;BME280;69234;47.446;21.636;2023-04-22T01:10:16;100300.13;;;10.12;48.08
79752;BME280;69234;47.446;21.636;2023-04-22T01:10:48;100298.16;;;10.14;47.79
79752;BME280;69234;47.446;21.636;2023-04-22T01:11:19;100300.97;;;10.12;48.48
79752;BME280;69234;47.446;21.636;2023-04-22T01:11:50;100298.28;;;10.12;48.06
79752;BME280;69234;47.446;21.636;2023-04-22T01:12:21;100299.88;;;10.15;47.43
79752;BME280;69234;47.446;21.636;2023-04-22T01:12:52;100297.28;;;10.13;48.10
79752;BME280;69234;47.446;21.636;2023-04-22T01:13:23;100299.97;;;10.13;48.14
79752;BME280;69234;47.446;21.636;2023-04-22T01:13:54;100295.72;;;10.11;47.93
79752;BME280;69234;47.446;21.636;2023-04-22T01:14:24;100294.03;;;10.10;48.01
79752;BME280;69234;47.446;21.636;2023-04-22T01:14:55;100300.38;;;10.09;48.04
79752;BME280;69234;47.446;21.636;2023-04-22T01:15:26;100298.66;;;10.08;48.46
79752;BME280;69234;47.446;21.636;2023-04-22T01:15:59;100294.16;;;10.08;48.05
79752;BME280;69234;47.446;21.636;2023-04-22T01:16:32;100300.38;;;10.09;47.95
79752;BME280;69234;47.446;21.636;2023-04-22T01:17:05;100295.84;;;10.09;47.67
79752;BME280;69234;47.446;21.636;2023-04-22T01:17:36;100293.28;;;10.08;48.25
79752;BME280;69234;47.446;21.636;2023-04-22T01:18:07;100301.47;;;10.06;48.38
79752;BME280;69234;47.446;21.636;2023-04-22T01:18:38;100298.94;;;10.05;48.14
79752;BME280;69234;47.446;21.636;2023-04-22T01:19:10;100293.56;;;10.05;48.05
79752;BME280;69234;47.446;21.636;2023-04-22T01:19:41;100298.34;;;10.01;48.56
79752;BME280;69234;47.446;21.636;2023-04-22T01:20:13;100292.25;;;9.99;48.45
79752;BME280;69234;47.446;21.636;2023-04-22T01:20:44;100289.81;;;9.96;48.81
79752;BME280;69234;47.446;21.636;2023-04-22T01:21:14;100295.34;;;9.94;48.96
79752;BME280;69234;47.446;21.636;2023-04-22T01:21:49;100299.97;;;9.92;48.59
79752;BME280;69234;47.446;21.636;2023-04-22T01:22:21;100297.28;;;9.92;48.33
79752;BME280;69234;47.446;21.636;2023-04-22T01:22:54;100299.13;;;9.92;48.56
79752;BME280;69234;47.446;21.636;2023-04-22T01:23:28;100295.69;;;9.90;48.75
79752;BME280;69234;47.446;21.636;2023-04-22T01:24:00;100302.78;;;9.91;48.73
79752;BME280;69234;47.446;21.636;2023-04-22T01:24:32;100292.06;;;9.91;48.41
79752;BME280;69234;47.446;21.636;2023-04-22T01:25:03;100294.00;;;9.89;48.74
79752;BME280;69234;47.446;21.636;2023-04-22T01:25:34;100297.78;;;9.86;48.44
79752;BME280;69234;47.446;21.636;2023-04-22T01:26:05;100297.94;;;9.85;49.03
79752;BME280;69234;47.446;21.636;2023-04-22T01:26:36;100292.66;;;9.83;48.62
79752;BME280;69234;47.446;21.636;2023-04-22T01:27:08;100295.25;;;9.85;48.49
79752;BME280;69234;47.446;21.636;2023-04-22T01:27:39;100296.34;;;9.82;48.68
79752;BME280;69234;47.446;21.636;2023-04-22T01:28:11;100294.75;;;9.80;48.68
79752;BME280;69234;47.446;21.636;2023-04-22T01:28:42;100300.72;;;9.83;48.63
79752;BME280;69234;47.446;21.636;2023-04-22T01:29:14;100292.81;;;9.82;49.09
79752;BME280;69234;47.446;21.636;2023-04-22T01:29:45;100301.31;;;9.87;48.40
79752;BME280;69234;47.446;21.636;2023-04-22T01:30:17;100303.88;;;9.88;48.02
79752;BME280;69234;47.446;21.636;2023-04-22T01:30:48;100296.69;;;9.89;48.51
79752;BME280;69234;47.446;21.636;2023-04-22T01:31:19;100299.38;;;9.89;48.12
79752;BME280;69234;47.446;21.636;2023-04-22T01:31:49;100291.06;;;9.92;47.58
79752;BME280;69234;47.446;21.636;2023-04-22T01:32:20;100294.09;;;9.98;47.68
79752;BME280;69234;47.446;21.636;2023-04-22T01:32:51;100300.28;;;9.99;47.50
79752;BME280;69234;47.446;21.636;2023-04-22T01:33:24;100294.94;;;9.99;47.96
79752;BME280;69234;47.446;21.636;2023-04-22T01:33:56;100295.66;;;10.01;47.56
79752;BME280;69234;47.446;21.636;2023-04-22T01:34:27;100298.34;;;10.01;47.31
79752;BME280;69234;47.446;21.636;2023-04-22T01:34:58;100294.94;;;9.99;47.58
79752;BME280;69234;47.446;21.636;2023-04-22T01:35:29;100302.84;;;10.00;47.59
79752;BME280;69234;47.446;21.636;2023-04-22T01:36:06;100300.28;;;9.99;47.59
79752;BME280;69234;47.446;21.636;2023-04-22T01:36:37;100298.59;;;9.98;47.67
79752;BME280;69234;47.446;21.636;2023-04-22T01:37:08;100298.00;;;9.94;47.96
79752;BME280;69234;47.446;21.636;2023-04-22T01:37:39;100299.13;;;9.92;48.46
79752;BME280;69234;47.446;21.636;2023-04-22T01:38:11;100293.00;;;9.90;48.41
79752;BME280;69234;47.446;21.636;2023-04-22T01:38:42;100296.69;;;9.89;48.59
79752;BME280;69234;47.446;21.636;2023-04-22T01:39:13;100306.69;;;9.87;48.68
79752;BME280;69234;47.446;21.636;2023-04-22T01:39:44;100297.94;;;9.85;48.38
79752;BME280;69234;47.446;21.636;2023-04-22T01:40:15;100298.19;;;9.82;49.49
79752;BME280;69234;47.446;21.636;2023-04-22T01:40:49;100303.53;;;9.82;48.90
79752;BME280;69234;47.446;21.636;2023-04-22T01:41:20;100302.09;;;9.77;48.68
79752;BME280;69234;47.446;21.636;2023-04-22T01:41:52;100301.97;;;9.79;48.90
79752;BME280;69234;47.446;21.636;2023-04-22T01:42:23;100303.19;;;9.75;48.95
79752;BME280;69234;47.446;21.636;2023-04-22T01:42:54;100303.34;;;9.73;49.35
79752;BME280;69234;47.446;21.636;2023-04-22T01:43:25;100300.91;;;9.70;49.36
79752;BME280;69234;47.446;21.636;2023-04-22T01:43:57;100305.69;;;9.67;49.06
79752;BME280;69234;47.446;21.636;2023-04-22T01:44:29;100300.31;;;9.67;49.18
79752;BME280;69234;47.446;21.636;2023-04-22T01:45:00;100299.56;;;9.65;49.09
79752;BME280;69234;47.446;21.636;2023-04-22T01:45:31;100303.09;;;9.65;49.14
79752;BME280;69234;47.446;21.636;2023-04-22T01:46:03;100308.72;;;9.62;49.19
79752;BME280;69234;47.446;21.636;2023-04-22T01:46:35;100301.66;;;9.61;48.95
79752;BME280;69234;47.446;21.636;2023-04-22T01:47:05;100304.47;;;9.60;48.95
79752;BME280;69234;47.446;21.636;2023-04-22T01:47:38;100304.34;;;9.61;48.86
79752;BME280;69234;47.446;21.636;2023-04-22T01:48:09;100307.28;;;9.58;49.05
79752;BME280;69234;47.446;21.636;2023-04-22T01:48:40;100306.56;;;9.56;48.89
79752;BME280;69234;47.446;21.636;2023-04-22T01:49:11;100309.84;;;9.60;48.67
79752;BME280;69234;47.446;21.636;2023-04-22T01:49:42;100308.25;;;9.57;48.73
79752;BME280;69234;47.446;21.636;2023-04-22T01:50:13;100312.63;;;9.58;48.60
79752;BME280;69234;47.446;21.636;2023-04-22T01:50:44;100308.25;;;9.57;48.34
79752;BME280;69234;47.446;21.636;2023-04-22T01:51:18;100315.31;;;9.58;48.24
79752;BME280;69234;47.446;21.636;2023-04-22T01:51:53;100312.78;;;9.57;48.13
79752;BME280;69234;47.446;21.636;2023-04-22T01:52:26;100316.16;;;9.59;48.36
79752;BME280;69234;47.446;21.636;2023-04-22T01:52:58;100311.53;;;9.61;48.51
79752;BME280;69234;47.446;21.636;2023-04-22T01:53:29;100318.75;;;9.60;48.14
79752;BME280;69234;47.446;21.636;2023-04-22T01:54:00;100313.47;;;9.59;48.41
79752;BME280;69234;47.446;21.636;2023-04-22T01:54:34;100315.47;;;9.57;49.23
79752;BME280;69234;47.446;21.636;2023-04-22T01:55:05;100320.94;;;9.55;49.24
79752;BME280;69234;47.446;21.636;2023-04-22T01:55:37;100319.72;;;9.48;51.09
79752;BME280;69234;47.446;21.636;2023-04-22T01:56:08;100319.50;;;9.40;52.05
79752;BME280;69234;47.446;21.636;2023-04-22T01:56:39;100319.16;;;9.33;52.35
79752;BME280;69234;47.446;21.636;2023-04-22T01:57:11;100322.22;;;9.28;52.92
79752;BME280;69234;47.446;21.636;2023-04-22T01:57:44;100320.72;;;9.24;53.36
79752;BME280;69234;47.446;21.636;2023-04-22T01:58:15;100321.50;;;9.15;53.68
79752;BME280;69234;47.446;21.636;2023-04-22T01:58:45;100324.53;;;9.11;54.23
79752;BME280;69234;47.446;21.636;2023-04-22T01:59:18;100319.69;;;9.04;54.04
79752;BME280;69234;47.446;21.636;2023-04-22T01:59:49;100318.94;;;9.02;54.37
79752;BME280;69234;47.446;21.636;2023-04-22T02:00:20;100320.88;;;9.00;54.14
79752;BME280;69234;47.446;21.636;2023-04-22T02:00:52;100325.75;;;8.95;54.69
79752;BME280;69234;47.446;21.636;2023-04-22T02:01:23;100319.78;;;8.92;54.80
79752;BME280;69234;47.446;21.636;2023-04-22T02:01:53;100320.03;;;8.89;54.83
79752;BME280;69234;47.446;21.636;2023-04-22T02:02:24;100316.88;;;8.84;54.96
79752;BME280;69234;47.446;21.636;2023-04-22T02:02:55;100326.84;;;8.81;54.57
79752;BME280;69234;47.446;21.636;2023-04-22T02:03:27;100327.81;;;8.80;55.26
79752;BME280;69234;47.446;21.636;2023-04-22T02:03:59;100326.25;;;8.78;55.68
79752;BME280;69234;47.446;21.636;2023-04-22T02:04:30;100334.41;;;8.76;54.99
79752;BME280;69234;47.446;21.636;2023-04-22T02:05:01;100328.44;;;8.73;55.26
79752;BME280;69234;47.446;21.636;2023-04-22T02:05:32;100323.41;;;8.68;55.13
79752;BME280;69234;47.446;21.636;2023-04-22T02:06:03;100327.19;;;8.66;55.33
79752;BME280;69234;47.446;21.636;2023-04-22T02:06:33;100326.47;;;8.64;55.37
79752;BME280;69234;47.446;21.636;2023-04-22T02:07:07;100325.00;;;8.60;55.72
79752;BME280;69234;47.446;21.636;2023-04-22T02:07:41;100331.44;;;8.57;55.47
79752;BME280;69234;47.446;21.636;2023-04-22T02:08:11;100326.09;;;8.57;55.25
79752;BME280;69234;47.446;21.636;2023-04-22T02:08:42;100324.41;;;8.56;55.32
79752;BME280;69234;47.446;21.636;2023-04-22T02:09:13;100322.66;;;8.55;55.49
79752;BME280;69234;47.446;21.636;2023-04-22T02:09:43;100318.44;;;8.52;55.46
79752;BME280;69234;47.446;21.636;2023-04-22T02:10:15;100326.56;;;8.51;55.64
79752;BME280;69234;47.446;21.636;2023-04-22T02:10:46;100328.38;;;8.50;55.51
79752;BME280;69234;47.446;21.636;2023-04-22T02:11:16;100318.91;;;8.46;56.49
79752;BME280;69234;47.446;21.636;2023-04-22T02:11:47;100321.66;;;8.45;56.43
79752;BME280;69234;47.446;21.636;2023-04-22T02:12:18;100319.13;;;8.43;56.41
79752;BME280;69234;47.446;21.636;2023-04-22T02:12:49;100316.69;;;8.40;56.51
79752;BME280;69234;47.446;21.636;2023-04-22T02:13:20;100324.84;;;8.39;56.18
79752;BME280;69234;47.446;21.636;2023-04-22T02:13:52;100324.84;;;8.39;55.95
79752;BME280;69234;47.446;21.636;2023-04-22T02:14:22;100322.25;;;8.37;56.05
79752;BME280;69234;47.446;21.636;2023-04-22T02:14:53;100323.22;;;8.36;56.03
79752;BME280;69234;47.446;21.636;2023-04-22T02:15:24;100324.06;;;8.37;55.69
79752;BME280;69234;47.446;21.636;2023-04-22T02:15:58;100325.16;;;8.34;56.51
79752;BME280;69234;47.446;21.636;2023-04-22T02:16:28;100326.50;;;8.28;57.00
79752;BME280;69234;47.446;21.636;2023-04-22T02:16:59;100320.16;;;8.29;56.55
79752;BME280;69234;47.446;21.636;2023-04-22T02:17:31;100331.09;;;8.26;56.48
79752;BME280;69234;47.446;21.636;2023-04-22T02:18:03;100325.03;;;8.24;56.52
79752;BME280;69234;47.446;21.636;2023-04-22T02:18:34;100314.31;;;8.24;56.33
79752;BME280;69234;47.446;21.636;2023-04-22T02:19:05;100321.47;;;8.24;56.60
79752;BME280;69234;47.446;21.636;2023-04-22T02:19:37;100311.88;;;8.21;56.52
79752;BME280;69234;47.446;21.636;2023-04-22T02:20:08;100329.72;;;8.21;56.37
79752;BME280;69234;47.446;21.636;2023-04-22T02:20:40;100326.19;;;8.20;56.58
79752;BME280;69234;47.446;21.636;2023-04-22T02:21:11;100322.06;;;8.16;57.25
79752;BME280;69234;47.446;21.636;2023-04-22T02:21:44;100323.13;;;8.14;57.36
79752;BME280;69234;47.446;21.636;2023-04-22T02:22:16;100323.28;;;8.12;56.82
79752;BME280;69234;47.446;21.636;2023-04-22T02:22:47;100325.09;;;8.12;56.99
79752;BME280;69234;47.446;21.636;2023-04-22T02:23:18;100322.53;;;8.10;56.73
79752;BME280;69234;47.446;21.636;2023-04-22T02:23:48;100325.19;;;8.10;56.59
79752;BME280;69234;47.446;21.636;2023-04-22T02:24:19;100326.06;;;8.10;56.69
79752;BME280;69234;47.446;21.636;2023-04-22T02:24:50;100319.97;;;8.08;57.04
79752;BME280;69234;47.446;21.636;2023-04-22T02:25:21;100319.97;;;8.08;57.00
79752;BME280;69234;47.446;21.636;2023-04-22T02:25:54;100321.81;;;8.08;57.12
79752;BME280;69234;47.446;21.636;2023-04-22T02:26:25;100321.81;;;8.08;56.88
79752;BME280;69234;47.446;21.636;2023-04-22T02:26:56;100318.59;;;8.03;58.11
79752;BME280;69234;47.446;21.636;2023-04-22T02:27:27;100323.94;;;8.03;57.45
79752;BME280;69234;47.446;21.636;2023-04-22T02:27:58;100313.16;;;8.04;57.05
79752;BME280;69234;47.446;21.636;2023-04-22T02:28:29;100317.75;;;8.02;57.28
79752;BME280;69234;47.446;21.636;2023-04-22T02:29:02;100319.59;;;8.02;57.25
79752;BME280;69234;47.446;21.636;2023-04-22T02:29:32;100319.59;;;8.02;57.39
79752;BME280;69234;47.446;21.636;2023-04-22T02:30:05;100322.38;;;8.00;57.29
79752;BME280;69234;47.446;21.636;2023-04-22T02:30:37;100326.00;;;7.99;57.15
79752;BME280;69234;47.446;21.636;2023-04-22T02:31:07;100319.81;;;7.99;56.94
79752;BME280;69234;47.446;21.636;2023-04-22T02:31:38;100321.50;;;8.00;57.11
79752;BME280;69234;47.446;21.636;2023-04-22T02:32:09;100322.38;;;8.00;56.79
79752;BME280;69234;47.446;21.636;2023-04-22T02:32:40;100322.50;;;7.99;57.50
79752;BME280;69234;47.446;21.636;2023-04-22T02:33:11;100319.94;;;7.97;57.20
79752;BME280;69234;47.446;21.636;2023-04-22T02:33:41;100322.00;;;7.94;57.44
79752;BME280;69234;47.446;21.636;2023-04-22T02:34:13;100319.53;;;7.91;58.29
79752;BME280;69234;47.446;21.636;2023-04-22T02:34:44;100316.88;;;7.91;58.05
79752;BME280;69234;47.446;21.636;2023-04-22T02:35:14;100321.47;;;7.89;57.86
79752;BME280;69234;47.446;21.636;2023-04-22T02:35:45;100318.06;;;7.86;57.79
79752;BME280;69234;47.446;21.636;2023-04-22T02:36:21;100318.41;;;7.82;57.76
79752;BME280;69234;47.446;21.636;2023-04-22T02:36:52;100316.84;;;7.79;58.16
79752;BME280;69234;47.446;21.636;2023-04-22T02:37:23;100317.78;;;7.78;58.76
79752;BME280;69234;47.446;21.636;2023-04-22T02:37:54;100317.06;;;7.76;57.91
79752;BME280;69234;47.446;21.636;2023-04-22T02:38:27;100318.22;;;7.72;58.11
79752;BME280;69234;47.446;21.636;2023-04-22T02:38:58;100318.47;;;7.69;58.60
79752;BME280;69234;47.446;21.636;2023-04-22T02:39:28;100316.75;;;7.68;58.87
79752;BME280;69234;47.446;21.636;2023-04-22T02:40:00;100314.31;;;7.65;58.71
79752;BME280;69234;47.446;21.636;2023-04-22T02:40:31;100320.63;;;7.64;58.89
79752;BME280;69234;47.446;21.636;2023-04-22T02:41:02;100319.91;;;7.62;58.83
79752;BME280;69234;47.446;21.636;2023-04-22T02:41:33;100320.00;;;7.60;58.92
79752;BME280;69234;47.446;21.636;2023-04-22T02:42:04;100318.53;;;7.56;59.06
79752;BME280;69234;47.446;21.636;2023-04-22T02:42:35;100325.78;;;7.54;59.01
79752;BME280;69234;47.446;21.636;2023-04-22T02:43:06;100317.91;;;7.53;59.27